Time,TemperatureF,DewpointF,PressureIn,WindDirection,WindDirectionDegrees,WindSpeedMPH,WindSpeedGustMPH,Humidity,HourlyPrecipIn,Conditions,Clouds,dailyrainin,SoftwareType,DateUTC
2013-02-11 00:00:00,30.0,15.4,28.64,NNW,331,28.2,42.3,54,0.00,,OVC034,0.00,VWS V14.01,2013-02-11 06:00:00,
2013-02-11 00:15:00,30.2,15.6,28.64,WNW,299,16.8,37.6,54,0.00,,BKN036,0.00,VWS V14.01,2013-02-11 06:15:00,
2013-02-11 00:30:00,30.2,15.1,28.64,ESE,119,22.1,37.6,53,0.00,,BKN036,0.00,VWS V14.01,2013-02-11 06:30:00,
2013-02-11 00:45:00,30.4,15.3,28.67,East,94,9.4,42.3,53,0.00,,BKN036,0.00,VWS V14.01,2013-02-11 06:45:00,
2013-02-11 01:00:00,30.7,15.2,28.67,North,357,18.1,55.0,52,0.00,,BKN036,0.00,VWS V14.01,2013-02-11 07:00:00,
2013-02-11 01:15:00,30.2,15.6,28.67,ESE,113,23.5,36.2,54,0.00,,BKN034,0.00,VWS V14.01,2013-02-11 07:15:00,
2013-02-11 01:30:00,30.2,17.6,28.70,WNW,282,20.8,38.9,59,0.00,,BKN034,0.00,VWS V14.01,2013-02-11 07:30:00,
2013-02-11 01:45:00,30.2,18.8,28.70,North,353,0.0,33.6,62,0.00,,BKN034,0.00,VWS V14.01,2013-02-11 07:45:00,
2013-02-11 02:00:00,30.0,19.7,28.70,NNE,19,12.1,29.5,65,0.00,,BKN034,0.00,VWS V14.01,2013-02-11 08:00:00,
2013-02-11 02:15:00,30.4,20.0,28.70,North,353,0.0,36.2,65,0.00,,BKN046,0.00,VWS V14.01,2013-02-11 08:15:00,
2013-02-11 02:30:00,30.6,18.0,28.70,North,357,24.8,36.2,59,0.00,,BKN046,0.00,VWS V14.01,2013-02-11 08:30:00,
2013-02-11 02:45:00,29.8,16.9,28.73,NW,314,18.1,33.6,58,0.00,,BKN046,0.00,VWS V14.01,2013-02-11 08:45:00,
2013-02-11 03:00:00,29.7,16.3,28.73,ENE,62,23.5,34.9,57,0.00,,BKN046,0.00,VWS V14.01,2013-02-11 09:00:00,
2013-02-11 03:15:00,29.5,16.5,28.73,SW,219,8.1,33.6,58,0.00,,OVC030,0.00,VWS V14.01,2013-02-11 09:15:00,
2013-02-11 03:30:00,29.5,15.7,28.76,East,83,15.4,40.9,56,0.00,,OVC030,0.00,VWS V14.01,2013-02-11 09:30:00,
2013-02-11 03:45:00,29.3,15.1,28.76,NE,56,10.7,29.5,55,0.00,,OVC030,0.00,VWS V14.01,2013-02-11 09:45:00,
2013-02-11 04:00:00,29.3,15.6,28.76,NNE,15,28.2,30.9,56,0.00,,OVC030,0.00,VWS V14.01,2013-02-11 10:00:00,
2013-02-11 04:15:00,29.3,15.1,28.76,ESE,108,15.4,40.9,55,0.00,,SCT028,0.00,VWS V14.01,2013-02-11 10:15:00,
2013-02-11 04:30:00,29.1,14.1,28.76,East,97,16.8,50.3,53,0.00,,SCT028,0.00,VWS V14.01,2013-02-11 10:30:00,
2013-02-11 04:45:00,28.8,14.6,28.79,East,89,13.4,37.6,55,0.00,,SCT028,0.00,VWS V14.01,2013-02-11 10:45:00,
2013-02-11 05:00:00,28.6,14.1,28.79,North,349,37.6,37.6,54,0.00,,SCT028,0.00,VWS V14.01,2013-02-11 11:00:00,
2013-02-11 05:15:00,28.2,14.1,28.79,SSE,167,0.0,37.6,55,0.00,,FEW028,0.00,VWS V14.01,2013-02-11 11:15:00,
2013-02-11 05:30:00,27.9,14.6,28.82,East,99,13.4,37.6,57,0.00,,FEW028,0.00,VWS V14.01,2013-02-11 11:30:00,
2013-02-11 05:45:00,28.4,15.5,28.82,NW,320,32.2,36.2,58,0.00,,FEW028,0.00,VWS V14.01,2013-02-11 11:45:00,
2013-02-11 06:00:00,28.6,15.7,28.82,NNW,343,9.4,32.2,58,0.00,,FEW028,0.00,VWS V14.01,2013-02-11 12:00:00,
2013-02-11 06:15:00,28.8,15.9,28.82,North,357,18.1,24.8,58,0.00,,BKN029,0.00,VWS V14.01,2013-02-11 12:15:00,
2013-02-11 06:30:00,28.9,16.0,28.82,NNW,334,0.0,26.8,58,0.00,,BKN029,0.00,VWS V14.01,2013-02-11 12:30:00,
2013-02-11 06:45:00,29.1,15.4,28.85,NE,50,12.1,29.5,56,0.00,,BKN029,0.00,VWS V14.01,2013-02-11 12:45:00,
2013-02-11 07:00:00,29.1,15.0,28.85,NNW,341,15.4,32.2,55,0.00,,BKN029,0.00,VWS V14.01,2013-02-11 13:00:00,
2013-02-11 07:15:00,28.9,14.8,28.85,North,0,0.0,29.5,55,0.00,,OVC023,0.00,VWS V14.01,2013-02-11 13:15:00,
2013-02-11 07:30:00,28.8,15.5,28.85,North,8,0.0,26.8,57,0.00,,OVC023,0.00,VWS V14.01,2013-02-11 13:30:00,
2013-02-11 07:45:00,28.8,14.6,28.85,NW,305,12.1,33.6,55,0.00,,OVC023,0.00,VWS V14.01,2013-02-11 13:45:00,
2013-02-11 08:00:00,28.9,14.0,28.85,NNE,33,0.0,34.9,53,0.00,,OVC023,0.00,VWS V14.01,2013-02-11 14:00:00,
2013-02-11 08:15:00,29.1,14.1,28.88,WSW,257,10.7,39.6,53,0.00,,OVC025,0.00,VWS V14.01,2013-02-11 14:15:00,
2013-02-11 08:30:00,29.1,14.1,28.88,East,81,10.7,29.5,53,0.00,,OVC025,0.00,VWS V14.01,2013-02-11 14:30:00,
2013-02-11 08:45:00,29.7,14.2,28.88,ESE,112,0.0,26.8,52,0.00,,OVC025,0.00,VWS V14.01,2013-02-11 14:45:00,
2013-02-11 09:00:00,29.8,14.4,28.88,NNW,342,13.4,37.6,52,0.00,,OVC025,0.00,VWS V14.01,2013-02-11 15:00:00,
2013-02-11 09:15:00,29.8,13.9,28.91,NNW,337,0.0,32.2,51,0.00,,BKN025,0.00,VWS V14.01,2013-02-11 15:15:00,
2013-02-11 09:30:00,30.2,14.3,28.91,North,357,12.1,32.2,51,0.00,,BKN025,0.00,VWS V14.01,2013-02-11 15:30:00,
2013-02-11 09:45:00,30.2,14.3,28.91,North,349,0.0,37.6,51,0.00,,BKN025,0.00,VWS V14.01,2013-02-11 15:45:00,
2013-02-11 10:00:00,30.9,14.5,28.94,SSE,160,0.0,26.8,50,0.00,,BKN025,0.00,VWS V14.01,2013-02-11 16:00:00,
2013-02-11 10:15:00,30.9,14.5,28.94,ESE,109,0.0,24.8,50,0.00,,OVC025,0.00,VWS V14.01,2013-02-11 16:15:00,
2013-02-11 10:30:00,31.1,14.2,28.94,North,5,29.5,29.5,49,0.00,,OVC025,0.00,VWS V14.01,2013-02-11 16:30:00,
2013-02-11 10:45:00,31.6,14.2,28.94,ENE,72,0.0,29.5,48,0.00,,OVC025,0.00,VWS V14.01,2013-02-11 16:45:00,
2013-02-11 11:00:00,32.2,14.7,28.94,NNE,25,0.0,29.5,48,0.00,,OVC025,0.00,VWS V14.01,2013-02-11 17:00:00,
2013-02-11 11:15:00,32.2,14.2,28.94,North,357,23.5,29.5,47,0.00,,OVC025,0.00,VWS V14.01,2013-02-11 17:15:00,
2013-02-11 11:30:00,32.5,14.6,28.94,NNW,330,8.1,28.2,47,0.00,,OVC025,0.00,VWS V14.01,2013-02-11 17:30:00,
2013-02-11 11:45:00,32.7,14.7,28.94,North,357,0.0,26.8,47,0.00,,OVC025,0.00,VWS V14.01,2013-02-11 17:45:00,
2013-02-11 12:00:00,33.3,15.2,28.94,NE,46,0.0,30.9,47,0.00,,OVC025,0.00,VWS V14.01,2013-02-11 18:00:00,
2013-02-11 12:15:00,33.4,15.4,28.94,West,274,0.0,26.2,47,0.00,,BKN025,0.00,VWS V14.01,2013-02-11 18:15:00,
2013-02-11 12:30:00,33.6,15.1,28.94,NNW,339,0.0,15.4,46,0.00,,BKN025,0.00,VWS V14.01,2013-02-11 18:30:00,
2013-02-11 12:45:00,34.5,15.4,28.94,NW,324,12.1,26.2,45,0.00,,BKN025,0.00,VWS V14.01,2013-02-11 18:45:00,
2013-02-11 13:00:00,35.2,15.5,28.94,SE,132,0.0,26.8,44,0.00,,BKN025,0.00,VWS V14.01,2013-02-11 19:00:00,
2013-02-11 13:15:00,34.5,14.9,28.94,NNW,330,8.1,26.8,44,0.00,,BKN027,0.00,VWS V14.01,2013-02-11 19:15:00,
2013-02-11 13:30:00,35.4,16.2,28.94,NW,321,18.1,23.5,45,0.00,,BKN027,0.00,VWS V14.01,2013-02-11 19:30:00,
2013-02-11 13:45:00,35.4,16.2,28.94,NW,307,0.0,26.8,45,0.00,,BKN027,0.00,VWS V14.01,2013-02-11 19:45:00,
2013-02-11 14:00:00,35.2,15.5,28.94,NNE,13,0.0,13.4,44,0.00,,BKN027,0.00,VWS V14.01,2013-02-11 20:00:00,
2013-02-11 14:15:00,35.8,16.0,28.94,NNE,16,14.1,20.8,44,0.00,,BKN029,0.00,VWS V14.01,2013-02-11 20:15:00,
2013-02-11 14:30:00,35.6,15.9,28.94,North,353,0.0,24.8,44,0.00,,BKN029,0.00,VWS V14.01,2013-02-11 20:30:00,
2013-02-11 14:45:00,35.6,15.9,28.94,NNW,344,0.0,24.8,44,0.00,,BKN029,0.00,VWS V14.01,2013-02-11 20:45:00,
2013-02-11 15:00:00,35.6,15.9,28.94,North,353,0.0,20.8,44,0.00,,BKN029,0.00,VWS V14.01,2013-02-11 21:00:00,
2013-02-11 15:15:00,35.4,16.2,28.94,North,7,0.0,19.5,45,0.00,,OVC029,0.00,VWS V14.01,2013-02-11 21:15:00,
2013-02-11 15:30:00,35.6,15.9,28.94,North,357,0.0,16.8,44,0.00,,OVC029,0.00,VWS V14.01,2013-02-11 21:30:00,
2013-02-11 15:45:00,35.4,16.2,28.94,North,353,0.0,13.4,45,0.00,,OVC029,0.00,VWS V14.01,2013-02-11 21:45:00,
2013-02-11 16:00:00,35.1,15.9,28.94,East,92,0.0,20.8,45,0.00,,OVC029,0.00,VWS V14.01,2013-02-11 22:00:00,
2013-02-11 16:15:00,34.5,15.9,28.94,NNW,346,0.0,14.1,46,0.00,,OVC029,0.00,VWS V14.01,2013-02-11 22:15:00,
2013-02-11 16:30:00,34.5,15.9,28.94,SSE,162,0.0,19.5,46,0.00,,OVC029,0.00,VWS V14.01,2013-02-11 22:30:00,
2013-02-11 16:45:00,34.3,15.7,28.94,NW,309,0.0,18.1,46,0.00,,OVC029,0.00,VWS V14.01,2013-02-11 22:45:00,
2013-02-11 17:00:00,34.3,16.2,28.94,East,84,0.0,16.8,47,0.00,,OVC029,0.00,VWS V14.01,2013-02-11 23:00:00,
2013-02-11 17:15:00,33.6,16.0,28.94,East,88,0.0,10.7,48,0.00,,OVC029,0.00,VWS V14.01,2013-02-11 23:15:00,
2013-02-11 17:30:00,33.1,16.5,28.94,ENE,66,0.0,14.1,50,0.00,,OVC029,0.00,VWS V14.01,2013-02-11 23:30:00,
2013-02-11 17:45:00,32.2,16.1,28.94,NE,51,0.0,12.1,51,0.00,,OVC029,0.00,VWS V14.01,2013-02-11 23:45:00,
2013-02-11 18:00:00,31.3,15.7,28.94,East,83,0.0,8.1,52,0.00,,OVC029,0.00,VWS V14.01,2013-02-12 00:00:00,
2013-02-11 18:15:00,30.2,15.6,28.94,ENE,76,0.0,0.0,54,0.00,,BKN029,0.00,VWS V14.01,2013-02-12 00:15:00,
2013-02-11 18:30:00,29.7,15.5,28.94,ENE,68,0.0,0.0,55,0.00,,BKN029,0.00,VWS V14.01,2013-02-12 00:30:00,
2013-02-11 18:45:00,28.9,15.2,28.94,ENE,64,0.0,9.4,56,0.00,,BKN029,0.00,VWS V14.01,2013-02-12 00:45:00,
2013-02-11 19:00:00,28.4,15.5,28.97,NE,39,0.0,0.0,58,0.00,,BKN029,0.00,VWS V14.01,2013-02-12 01:00:00,
2013-02-11 19:15:00,27.9,15.4,28.97,NE,43,0.0,0.0,59,0.00,,FEW029,0.00,VWS V14.01,2013-02-12 01:15:00,
2013-02-11 19:30:00,27.1,15.1,28.97,NE,43,0.0,0.0,60,0.00,,FEW029,0.00,VWS V14.01,2013-02-12 01:30:00,
2013-02-11 19:45:00,26.4,14.8,28.97,NE,43,0.0,0.0,61,0.00,,FEW029,0.00,VWS V14.01,2013-02-12 01:45:00,
2013-02-11 20:00:00,26.1,14.8,28.97,NE,43,0.0,0.0,62,0.00,,FEW029,0.00,VWS V14.01,2013-02-12 02:00:00,
2013-02-11 20:15:00,25.9,15.4,28.97,NE,36,0.0,0.0,64,0.00,,CLR,0.00,VWS V14.01,2013-02-12 02:15:00,
2013-02-11 20:30:00,25.5,15.8,28.97,NE,40,0.0,0.0,66,0.00,,CLR,0.00,VWS V14.01,2013-02-12 02:30:00,
2013-02-11 20:45:00,25.2,15.8,28.97,NE,43,0.0,0.0,67,0.00,,CLR,0.00,VWS V14.01,2013-02-12 02:45:00,
2013-02-11 21:00:00,24.4,15.1,28.97,NE,43,0.0,0.0,67,0.00,,CLR,0.00,VWS V14.01,2013-02-12 03:00:00,
2013-02-11 21:15:00,23.7,14.4,28.97,NE,43,0.0,0.0,67,0.00,,CLR,0.00,VWS V14.01,2013-02-12 03:15:00,
2013-02-11 21:30:00,23.5,14.6,28.97,NE,43,0.0,0.0,68,0.00,,CLR,0.00,VWS V14.01,2013-02-12 03:30:00,
2013-02-11 21:45:00,23.0,14.0,28.97,NE,43,0.0,0.0,68,0.00,,CLR,0.00,VWS V14.01,2013-02-12 03:45:00,
2013-02-11 22:00:00,21.9,13.0,28.97,NE,43,0.0,0.0,68,0.00,,CLR,0.00,VWS V14.01,2013-02-12 04:00:00,
2013-02-11 22:15:00,21.2,12.6,28.97,NE,43,0.0,0.0,69,0.00,,CLR,0.00,VWS V14.01,2013-02-12 04:15:00,
2013-02-11 22:30:00,20.8,12.6,28.97,NE,43,0.0,0.0,70,0.00,,CLR,0.00,VWS V14.01,2013-02-12 04:30:00,
2013-02-11 22:45:00,20.8,12.9,28.97,NE,43,0.0,0.0,71,0.00,,CLR,0.00,VWS V14.01,2013-02-12 04:45:00,
2013-02-11 23:00:00,20.5,12.6,28.97,NE,43,0.0,0.0,71,0.00,,CLR,0.00,VWS V14.01,2013-02-12 05:00:00,
2013-02-11 23:15:00,20.3,12.7,28.97,NE,43,0.0,0.0,72,0.00,,CLR,0.00,VWS V14.01,2013-02-12 05:15:00,
2013-02-11 23:30:00,20.3,12.7,28.97,NE,43,0.0,0.0,72,0.00,,CLR,0.00,VWS V14.01,2013-02-12 05:30:00,
2013-02-11 23:45:00,20.1,12.9,28.97,NE,43,0.0,0.0,73,0.00,,CLR,0.00,VWS V14.01,2013-02-12 05:45:00,